Mankato, Minnesota
Current Conditions -  °F | °C
As of 4:15 PM on Tuesday 25 Nov 2014 (Local Time) from KMKT Reporting Station
Overcast Overcast  
Wind Chill: 19°   Ceiling: 5000
Heat Index: 27°   Visibility: 10mi
Dew Point: 10°   Wind: 7mph
Humidity: 51%   Direction: 160°SSE
Pressure: 30.01"   Gusts: NA
Location:  44.17°N, 94°W
Report Text: KMKT 252215Z AUTO 16006KT 10SM OVC050 M03/M12 A3001 RMK AO1
Loading
Personal Weather Stations






























Interactive Weather Map New forecast layout! Learn more

10-Day Weather Forecast

Advertisements
Track Severe Weather on mobile